Latest Weather Observations for Orange Airport

IDN60801

Issued at 11:02 am EST Tuesday 28 July 2015 (issued every 30 minutes, with the page automatically refreshed every 10 minutes)

About weather observations | Map of weather stations | Latest weather observations for NSW | Other Formats
Station Details ID: 063303 Name: ORANGE AIRPORT AWS Lat: -33.38 Lon: 149.13 Height: 944.65 m
Data from the previous 72 hours. | See also: Recent months at Orange Airport
Date/Time
EST
Temp
°C
App
Temp
°C
Dew
Point
Rel
Hum
%
Delta-T
°C
Wind Press
QNH
hPa
Press
MSL
hPa
Rain
since 9 am
mm
Dir
 
Spd
km/h
Gust
km/h
Spd
kts
Gust
kts
28/11:00am 5.1 -1.2 1.8 79 1.4 SSW 24 32 13 17 1033.3 1034.8 0.0
28/10:58am 5.0 -1.3 1.5 78 1.5 SSW 24 32 13 17 1033.3 1034.8 0.0
28/10:30am 4.1 -2.6 1.3 82 1.1 SSW 26 33 14 18 1033.5 1035.0 0.0
28/10:00am 4.6 -2.4 1.8 82 1.2 S 28 35 15 19 1033.3 1034.8 0.0
28/09:30am 3.9 -2.3 1.9 87 0.8 S 24 30 13 16 1033.2 1034.7 0.0
28/09:00am 3.1 -2.4 1.9 92 0.5 SSW 20 32 11 17 1033.0 1034.4 0.0
28/08:30am 2.1 -3.5 1.1 93 0.4 SSW 20 30 11 16 1033.1 1034.5 0.0
28/08:00am 2.1 -2.9 1.1 93 0.4 S 17 24 9 13 1032.8 1034.3 0.0
28/07:33am 1.9 -3.2 0.9 93 0.4 S 17 20 9 11 1032.4 1033.9 0.0
28/07:30am 1.9 -3.2 0.9 93 0.4 S 17 20 9 11 1032.4 1033.9 0.0
28/07:26am 1.9 -2.8 0.9 93 0.4 S 15 22 8 12 1032.4 1033.9 0.0
28/07:00am 1.9 -3.2 0.9 93 0.4 SSW 17 22 9 12 1032.2 1033.6 0.0
28/06:30am 1.9 -3.6 0.9 93 0.4 SSW 19 24 10 13 1031.7 1033.2 0.0
28/06:00am 1.8 -3.3 0.8 93 0.4 SSW 17 28 9 15 1031.3 1032.7 0.0
28/05:30am 1.7 -3.0 0.7 93 0.4 SSW 15 20 8 11 1031.1 1032.5 0.0
28/05:00am 1.7 -3.0 0.7 93 0.4 SSW 15 22 8 12 1030.9 1032.3 0.0
28/04:38am 1.8 -2.9 0.8 93 0.4 SSW 15 20 8 11 1030.7 1032.1 0.0
28/04:30am 1.8 -3.3 0.8 93 0.4 SSW 17 20 9 11 1030.5 1032.0 0.0
28/04:00am 1.8 -3.7 0.6 92 0.5 SSW 19 24 10 13 1030.5 1032.0 0.0
28/03:30am 1.8 -2.9 0.6 92 0.5 SSW 15 22 8 12 1030.5 1032.0 0.0
28/03:00am 1.8 -3.8 0.2 89 0.6 SSW 19 30 10 16 1030.3 1031.7 0.0
28/02:30am 1.9 -3.7 -0.2 86 0.8 SW 19 26 10 14 1030.3 1031.7 0.0
28/02:00am 1.9 -3.7 -0.2 86 0.8 SSW 19 26 10 14 1030.3 1031.7 0.0
28/01:30am 1.9 -3.7 0.1 88 0.7 SW 19 24 10 13 1030.2 1031.6 0.0
28/01:00am 1.9 -3.3 0.3 89 0.6 SSW 17 26 9 14 1030.4 1031.9 0.0
28/12:47am 1.9 -3.8 0.3 89 0.6 SSW 20 28 11 15 1030.2 1031.6 0.0
28/12:30am 1.8 -4.3 0.6 92 0.5 SSW 22 32 12 17 1030.3 1031.7 0.0
28/12:00am 2.0 -4.4 0.7 91 0.5 SW 24 35 13 19 1030.3 1031.7 0.0
 
Date/Time
EST
Temp
°C
App
Temp
°C
Dew
Point
Rel
Hum
%
Delta-T
°C
Wind Press
QNH
hPa
Press
MSL
hPa
Rain
since 9 am
mm
Dir
 
Spd
km/h
Gust
km/h
Spd
kts
Gust
kts
27/11:58pm 2.0 -4.4 0.7 91 0.5 SW 24 35 13 19 1030.3 1031.7 0.0
27/11:30pm 2.1 -4.0 0.5 89 0.6 SSW 22 32 12 17 1030.2 1031.6 0.0
27/11:00pm 2.1 -4.3 0.8 91 0.5 SSW 24 37 13 20 1030.2 1031.6 0.0
27/10:57pm 2.1 -3.9 0.9 92 0.5 SSW 22 32 12 17 1030.2 1031.6 0.0
27/10:30pm 2.1 -4.7 0.9 92 0.5 SSW 26 35 14 19 1030.1 1031.5 0.0
27/10:21pm 2.1 -3.9 0.9 92 0.5 SSW 22 35 12 19 1030.2 1031.6 0.0
27/10:00pm 2.2 -4.7 0.3 87 0.7 SSW 26 37 14 20 1030.1 1031.5 0.0
27/09:59pm 2.2 -4.7 0.3 87 0.8 SSW 26 37 14 20 1030.1 1031.5 0.0
27/09:30pm 2.2 -5.0 0.6 89 0.6 SSW 28 41 15 22 1030.0 1031.4 0.0
27/09:04pm 2.3 -4.1 0.8 90 0.6 SSW 24 33 13 18 1030.0 1031.4 0.0
27/09:00pm 2.2 -3.9 0.7 90 0.6 SSW 22 33 12 18 1030.0 1031.4 0.0
27/08:30pm 2.2 -5.0 0.4 88 0.7 SW 28 39 15 21 1029.7 1031.1 0.0
27/08:00pm 2.2 -5.8 0.3 87 0.7 SSW 32 41 17 22 1029.3 1030.7 0.0
27/07:30pm 2.2 -5.0 0.7 90 0.6 SW 28 35 15 19 1029.2 1030.6 0.0
27/07:00pm 2.2 -4.2 0.7 90 0.6 SW 24 32 13 17 1029.2 1030.6 0.0
27/06:30pm 2.0 -4.4 0.8 92 0.5 SW 24 32 13 17 1028.7 1030.1 0.0
27/06:00pm 2.0 -4.4 0.7 91 0.5 SW 24 33 13 18 1028.2 1029.6 0.0
27/05:30pm 2.0 -4.1 0.4 89 0.6 SW 22 32 12 17 1027.9 1029.3 0.0
27/05:00pm 1.9 -4.6 0.4 90 0.6 SW 24 33 13 18 1027.7 1029.0 0.0
27/04:30pm 2.3 -4.6 0.2 86 0.8 SW 26 35 14 19 1027.6 1028.9 0.0
27/04:00pm 2.3 -4.6 0.2 86 0.8 SW 26 37 14 20 1027.3 1028.6 0.0
27/03:30pm 2.4 -5.0 -0.4 82 1.1 SW 28 39 15 21 1027.3 1028.6 0.0
27/03:00pm 2.8 -5.3 -0.5 79 1.3 SW 32 43 17 23 1027.1 1028.5 0.0
27/02:30pm 2.8 -4.1 0.4 84 1.0 SW 26 39 14 21 1026.7 1028.0 0.0
27/02:00pm 3.6 -4.0 0.3 79 1.3 SW 30 41 16 22 1026.4 1027.7 0.0
27/01:30pm 2.5 -4.1 -0.4 81 1.1 SW 24 33 13 18 1026.5 1027.8 0.0
27/01:15pm 2.7 -3.9 -0.6 79 1.3 SW 24 37 13 20 1026.6 1027.9 0.0
27/01:00pm 2.7 -5.0 -0.1 82 1.1 SW 30 37 16 20 1026.6 1027.9 0.0
27/12:30pm 2.3 -3.4 0.4 87 0.8 SW 20 26 11 14 1026.8 1028.2 0.0
27/12:00pm 1.5 -4.7 0.0 90 0.6 SW 22 33 12 18 1027.3 1028.6 0.0
27/11:30am 1.5 -5.8 -0.1 89 0.6 SW 28 39 15 21 1027.4 1028.7 0.0
27/11:00am 2.0 -4.4 0.7 91 0.5 SW 24 37 13 20 1027.3 1028.6 0.0
27/10:30am 1.9 -4.6 0.4 90 0.6 SW 24 37 13 20 1027.0 1028.4 0.0
27/10:00am 1.4 -3.8 -0.1 90 0.6 SW 17 26 9 14 1026.7 1028.0 0.0
27/09:30am 0.7 -5.5 -0.3 93 0.4 SW 22 37 12 20 1026.5 1027.8 0.0
27/09:00am 0.3 -6.7 -0.7 93 0.4 WSW 26 37 14 20 1026.1 1027.4 3.2
27/08:30am 0.1 -7.0 -0.9 93 0.4 SW 26 33 14 18 1025.6 1026.9 3.2
27/08:00am -0.2 -7.7 -1.2 93 0.4 SW 28 35 15 19 1025.5 1026.8 3.2
27/07:30am -0.2 -6.9 -1.2 93 0.4 SW 24 35 13 19 1025.1 1026.4 3.2
27/07:00am 0.0 -6.3 -1.0 93 0.4 SW 22 32 12 17 1024.8 1026.1 3.2
27/06:30am 0.1 -7.3 -0.9 93 0.4 SW 28 35 15 19 1024.4 1025.7 3.2
27/06:00am 0.0 -6.3 -1.0 93 0.4 SW 22 32 12 17 1024.0 1025.2 3.2
27/05:30am 0.0 -6.7 -1.0 93 0.4 SW 24 35 13 19 1023.6 1024.9 3.2
27/05:00am 0.3 -5.6 -0.7 93 0.4 WSW 20 28 11 15 1023.4 1024.7 3.2
27/04:30am 0.5 -6.1 -0.5 93 0.4 WSW 24 32 13 17 1023.1 1024.3 3.2
27/04:00am 0.7 -5.1 -0.3 93 0.4 WSW 20 26 11 14 1023.1 1024.3 3.2
27/03:30am 0.6 -5.1 -0.4 93 0.4 WSW 19 28 10 15 1023.1 1024.3 3.2
27/03:00am 0.6 -5.1 -0.4 93 0.4 SW 19 33 10 18 1023.0 1024.2 3.2
27/02:30am 0.8 -5.4 -0.2 93 0.4 SW 22 32 12 17 1022.9 1024.1 3.2
27/02:00am 1.0 -5.5 0.0 93 0.4 SW 24 35 13 19 1022.7 1023.9 3.2
27/01:30am 0.9 -5.3 -0.1 93 0.4 SW 22 32 12 17 1022.5 1023.8 3.2
27/01:00am 0.9 -5.7 -0.1 93 0.4 WSW 24 37 13 20 1022.7 1023.9 3.2
27/12:30am 1.3 -4.2 0.3 93 0.4 SW 19 30 10 16 1023.0 1024.2 3.2
27/12:00am 1.3 -4.4 0.3 93 0.4 WSW 20 30 11 16 1023.1 1024.3 3.2
 
Date/Time
EST
Temp
°C
App
Temp
°C
Dew
Point
Rel
Hum
%
Delta-T
°C
Wind Press
QNH
hPa
Press
MSL
hPa
Rain
since 9 am
mm
Dir
 
Spd
km/h
Gust
km/h
Spd
kts
Gust
kts
26/11:30pm 1.5 -3.6 0.5 93 0.4 WSW 17 24 9 13 1023.1 1024.3 3.2
26/11:00pm 1.6 -4.1 0.6 93 0.4 W 20 28 11 15 1023.0 1024.2 3.2
26/10:30pm 2.3 -3.3 1.3 93 0.4 W 20 28 11 15 1022.9 1024.1 3.2
26/10:00pm 2.4 -3.9 1.4 93 0.4 WSW 24 32 13 17 1022.8 1024.0 3.2
26/09:30pm 2.7 -3.6 1.7 93 0.4 WSW 24 32 13 17 1022.5 1023.8 3.2
26/09:00pm 2.7 -3.6 1.7 93 0.4 WSW 24 37 13 20 1022.5 1023.8 3.2
26/08:30pm 2.8 -3.5 1.8 93 0.4 WSW 24 32 13 17 1022.1 1023.3 3.2
26/08:00pm 2.9 -3.3 1.9 93 0.4 WSW 24 35 13 19 1021.8 1023.0 3.2
26/07:34pm 2.6 -5.2 1.6 93 0.4 WSW 32 39 17 21 1021.7 1022.9 3.2
26/07:30pm 2.6 -5.2 1.6 93 0.4 WSW 32 41 17 22 1021.6 1022.8 3.0
26/07:05pm 3.0 -4.8 2.0 93 0.4 WSW 32 41 17 22 1021.2 1022.4 2.6
26/07:04pm 3.0 -4.8 2.0 93 0.4 WSW 32 44 17 24 1021.2 1022.4 2.4
26/07:00pm 3.0 -4.9 2.0 93 0.4 WSW 33 44 18 24 1021.2 1022.4 2.4
26/06:30pm 3.5 -3.8 2.5 93 0.4 WSW 30 41 16 22 1020.4 1021.5 1.8
26/06:00pm 4.1 -4.0 3.1 93 0.4 WSW 35 46 19 25 1019.7 1020.9 1.4
26/05:30pm 4.7 -2.4 3.7 93 0.4 WSW 30 39 16 21 1019.1 1020.3 1.2
26/05:17pm 4.9 0.0 3.9 93 0.4 W 19 26 10 14 1019.0 1020.2 1.0
26/05:15pm 4.9 0.0 3.9 93 0.4 W 19 24 10 13 1019.0 1020.2 1.0
26/05:04pm 4.8 0.6 3.8 93 0.4 W 15 20 8 11 1018.8 1020.0 1.0
26/05:00pm 4.8 0.2 3.8 93 0.4 W 17 24 9 13 1018.8 1020.0 1.0
26/04:38pm 4.9 -1.0 3.9 93 0.4 W 24 30 13 16 1018.7 1019.9 0.8
26/04:30pm 4.8 -1.5 3.8 93 0.4 W 26 37 14 20 1018.7 1019.9 0.8
26/04:00pm 5.4 -0.4 4.4 93 0.5 WSW 24 32 13 17 1018.3 1019.4 0.8
26/03:30pm 6.3 0.7 5.3 93 0.5 WSW 24 33 13 18 1018.2 1019.3 0.6
26/03:05pm 6.9 1.4 5.8 93 0.5 W 24 33 13 18 1017.8 1019.0 0.4
26/03:04pm 7.0 1.5 5.9 93 0.5 W 24 33 13 18 1017.9 1019.1 0.4
26/03:03pm 7.0 1.5 5.9 93 0.5 W 24 35 13 19 1017.9 1019.1 0.4
26/03:00pm 7.0 0.4 5.9 93 0.5 WNW 30 43 16 23 1017.8 1019.0 0.4
26/02:51pm 6.9 -0.8 5.2 89 0.8 WNW 35 54 19 29 1017.7 1018.8 0.2
26/02:47pm 7.3 -0.5 4.9 85 1.1 WNW 35 54 19 29 1017.5 1018.6 0.0
26/02:30pm 9.0 0.8 4.6 74 2.1 WNW 37 50 20 27 1017.4 1018.5 0.0
26/02:00pm 9.3 1.5 4.7 73 2.2 WNW 35 48 19 26 1017.1 1018.2 0.0
26/01:35pm 10.4 2.7 5.2 70 2.5 WNW 35 54 19 29 1017.2 1018.3 0.0
26/01:30pm 9.6 1.8 4.8 72 2.3 WNW 35 46 19 25 1017.4 1018.5 0.0
26/01:00pm 10.0 2.2 5.0 71 2.4 W 35 44 19 24 1017.4 1018.5 0.0
26/12:30pm 9.5 1.3 4.7 72 2.3 W 37 54 20 29 1017.9 1019.1 0.0
26/12:00pm 8.8 1.9 4.6 75 2.0 WNW 30 50 16 27 1018.6 1019.7 0.0
26/11:58am 9.1 2.3 5.1 76 1.9 WNW 30 50 16 27 1018.6 1019.7 0.0
26/11:30am 8.1 2.4 4.9 80 1.5 WNW 24 32 13 17 1019.3 1020.4 0.0
26/11:00am 8.2 2.1 4.6 78 1.7 W 26 41 14 22 1019.5 1020.6 0.0
26/10:30am 8.4 3.1 5.2 80 1.5 WNW 22 37 12 20 1019.7 1020.9 0.0
26/10:00am 8.0 2.2 4.6 79 1.6 W 24 33 13 18 1019.7 1020.9 0.0
26/09:30am 8.1 2.7 4.3 77 1.8 WNW 22 30 12 16 1019.6 1020.8 0.0
26/09:00am 7.7 2.3 4.3 79 1.6 WNW 22 28 12 15 1019.4 1020.5 0.0
26/08:30am 7.6 2.8 4.4 80 1.5 WNW 19 22 10 12 1019.5 1020.6 0.0
26/08:00am 5.8 0.6 3.6 86 1.0 WNW 20 26 11 14 1019.4 1020.5 0.0
26/07:30am 5.5 -0.1 3.7 88 0.8 WNW 22 26 12 14 1019.5 1020.6 0.0
26/07:00am 5.3 -0.7 3.5 88 0.8 WNW 24 35 13 19 1019.1 1020.3 0.0
26/06:30am 5.5 -0.8 3.5 87 0.9 WNW 26 32 14 17 1019.0 1020.2 0.0
26/06:00am 5.6 -0.4 3.3 85 1.0 WNW 24 30 13 16 1018.9 1020.1 0.0
26/05:30am 5.4 -1.1 2.8 83 1.1 WNW 26 32 14 17 1018.7 1019.9 0.0
26/05:00am 5.4 -1.1 2.6 82 1.2 W 26 37 14 20 1018.6 1019.7 0.0
26/04:30am 5.3 -0.8 2.7 83 1.1 W 24 39 13 21 1018.6 1019.7 0.0
26/04:00am 5.0 -0.7 2.7 85 1.0 W 22 30 12 16 1018.9 1020.1 0.0
26/03:30am 5.2 -0.8 3.5 89 0.8 W 24 32 13 17 1019.1 1020.3 0.0
26/03:00am 5.1 -0.9 3.3 88 0.8 W 24 35 13 19 1019.0 1020.2 0.0
26/02:30am 5.2 -1.6 2.9 85 1.0 WNW 28 39 15 21 1019.1 1020.3 0.0
26/02:00am 4.2 -0.9 3.0 92 0.5 WNW 19 24 10 13 1019.6 1020.8 0.0
26/01:30am 4.5 -1.1 3.3 92 0.5 NW 22 28 12 15 1019.8 1021.0 0.0
26/01:00am 4.3 -1.7 3.1 92 0.5 NW 24 30 13 16 1019.7 1020.9 0.0
26/12:30am 5.0 -1.7 3.5 90 0.7 NW 28 35 15 19 1019.8 1021.0 0.0
26/12:00am 5.5 -1.2 3.7 88 0.8 NW 28 43 15 23 1020.2 1021.4 0.0
 
Date/Time
EST
Temp
°C
App
Temp
°C
Dew
Point
Rel
Hum
%
Delta-T
°C
Wind Press
QNH
hPa
Press
MSL
hPa
Rain
since 9 am
mm
Dir
 
Spd
km/h
Gust
km/h
Spd
kts
Gust
kts
25/11:30pm 5.7 -1.3 3.9 88 0.8 WNW 30 39 16 21 1020.2 1021.4 0.0
25/11:00pm 6.1 -0.8 4.6 90 0.7 NW 30 35 16 19 1020.4 1021.5 0.0
25/10:30pm 5.3 -0.2 4.1 92 0.5 NW 22 28 12 15 1020.1 1021.3 0.0
25/10:00pm 5.5 0.1 4.3 92 0.5 NW 22 26 12 14 1020.0 1021.2 0.0
25/09:30pm 5.4 0.5 4.2 92 0.5 NW 19 24 10 13 1020.0 1021.2 0.0
25/09:00pm 5.4 0.5 4.2 92 0.5 NW 19 24 10 13 1020.5 1021.6 0.0
25/08:30pm 5.6 1.1 4.2 91 0.6 NW 17 22 9 12 1020.4 1021.5 0.0
25/08:00pm 5.2 1.4 3.9 91 0.6 WNW 13 17 7 9 1020.5 1021.6 0.0
25/07:30pm 4.8 1.3 3.6 92 0.5 W 11 17 6 9 1020.2 1021.4 0.0
25/07:00pm 4.6 1.9 2.5 86 0.9 SW 6 7 3 4 1020.4 1021.5 0.0
25/06:30pm 5.9 2.8 3.4 84 1.1 W 9 15 5 8 1019.7 1020.9 0.0
25/06:00pm 6.4 2.6 3.7 83 1.2 W 13 17 7 9 1019.3 1020.4 0.0
25/05:30pm 7.1 2.6 4.1 81 1.4 WNW 17 28 9 15 1019.3 1020.4 0.0
25/05:00pm 7.5 2.9 3.9 78 1.6 WNW 17 26 9 14 1019.3 1020.4 0.0
25/04:30pm 8.4 2.8 3.5 71 2.2 WNW 22 32 12 17 1018.7 1019.9 0.0
25/04:00pm 9.4 3.0 3.4 66 2.7 WNW 26 37 14 20 1018.6 1019.7 0.0
25/03:30pm 9.9 3.5 3.2 63 3.1 WNW 26 35 14 19 1018.6 1019.7 0.0
25/03:00pm 10.0 4.0 3.3 63 3.1 WNW 24 37 13 20 1018.7 1019.9 0.0
25/02:30pm 9.9 3.8 3.0 62 3.1 W 24 39 13 21 1018.8 1020.0 0.0
25/02:00pm 10.2 4.5 2.8 60 3.4 W 22 35 12 19 1018.7 1019.9 0.0
25/01:30pm 10.2 3.3 2.8 60 3.4 W 28 37 15 20 1018.8 1020.0 0.0
25/01:00pm 10.1 3.0 3.4 63 3.1 WNW 30 39 16 21 1019.0 1020.2 0.0
25/12:30pm 9.5 2.2 2.4 61 3.2 W 30 43 16 23 1019.4 1020.5 0.0
25/12:00pm 9.6 2.2 3.8 67 2.7 W 32 41 17 22 1019.8 1021.0 0.0
25/11:30am 9.1 2.2 2.7 64 2.9 W 28 39 15 21 1020.0 1021.2 0.0

Other Formats:

Comma delimited format used in spreadsheet applications
http://www.bom.gov.au/fwo/IDN60801/IDN60801.95726.axf

JavaScript Object Notation format (JSON) in row-major order
http://www.bom.gov.au/fwo/IDN60801/IDN60801.95726.json